Time;durP1;ratioP1;P1;durP2;ratioP2;P2;SDS_P1;SDS_P2;PMS_P1;PMS_P2;Temp;Humidity;BMP_temperature;BMP_pressure;BME280_temperature;BME280_humidity;BME280_pressure;Samples;Min_cycle;Max_cycle;Signal;HPM_P1;HPM_P2
2021/10/04 00:01:27;;;;;;;1.27;0.80;;;14.80;99.90;;;;;;4898724;28;20501;-84
2021/10/04 00:04:14;;;;;;;1.30;0.87;;;14.80;99.90;;;;;;4885107;29;20454;-86
2021/10/04 00:06:50;;;;;;;3.50;0.77;;;14.70;99.90;;;;;;4888074;29;20654;-85
2021/10/04 00:09:35;;;;;;;0.70;0.70;;;14.80;99.90;;;;;;4890264;29;21415;-86
2021/10/04 00:12:43;;;;;;;0.70;0.70;;;14.70;99.90;;;;;;4886158;29;20614;-85
2021/10/04 00:15:25;;;;;;;1.87;0.67;;;14.60;99.90;;;;;;4898270;29;20527;-85
2021/10/04 00:18:24;;;;;;;1.07;0.93;;;14.70;99.90;;;;;;4900639;28;20446;-86
2021/10/04 00:21:12;;;;;;;0.97;0.87;;;14.70;99.90;;;;;;4993903;23;20502;-85
2021/10/04 00:23:54;;;;;;;1.23;0.60;;;14.70;99.90;;;;;;4971139;28;20560;-85
2021/10/04 00:26:21;;;;;;;2.03;1.10;;;14.60;99.90;;;;;;4960455;28;22240;-86
2021/10/04 00:29:00;;;;;;;0.60;0.60;;;14.60;99.90;;;;;;4958515;28;20471;-88
2021/10/04 00:32:02;;;;;;;0.77;0.70;;;14.80;99.90;;;;;;4933569;28;21180;-87
2021/10/04 00:35:11;;;;;;;1.53;1.00;;;14.80;99.90;;;;;;4946913;28;20482;-85
2021/10/04 00:37:53;;;;;;;1.43;0.80;;;14.70;99.90;;;;;;4950473;28;20462;-85
2021/10/04 00:40:35;;;;;;;1.67;0.80;;;14.80;99.90;;;;;;4946647;28;20919;-84
2021/10/04 00:43:49;;;;;;;1.17;0.80;;;14.80;99.90;;;;;;4950914;28;20475;-84
2021/10/04 00:47:30;;;;;;;1.17;0.77;;;14.70;99.90;;;;;;4961010;28;20477;-85
2021/10/04 00:50:09;;;;;;;1.00;0.93;;;14.70;99.90;;;;;;4928744;28;20487;-83
2021/10/04 00:52:39;;;;;;;0.60;0.60;;;14.70;99.90;;;;;;4939724;28;20481;-81
2021/10/04 00:55:07;;;;;;;0.90;0.70;;;14.70;99.90;;;;;;4932638;28;20481;-84
2021/10/04 00:57:56;;;;;;;0.83;0.80;;;14.50;99.90;;;;;;4955482;28;20553;-82
2021/10/04 01:01:00;;;;;;;1.00;0.90;;;14.30;99.90;;;;;;4938839;28;20494;-84
2021/10/04 01:03:28;;;;;;;0.87;0.83;;;14.60;99.90;;;;;;4952437;28;21354;-83
2021/10/04 01:05:57;;;;;;;1.00;0.73;;;14.50;99.90;;;;;;4961902;28;20542;-81
2021/10/04 01:08:26;;;;;;;1.20;0.70;;;14.60;99.90;;;;;;5034250;23;20520;-85
2021/10/04 01:10:56;;;;;;;1.57;0.83;;;14.70;99.90;;;;;;4979711;28;21918;-83
2021/10/04 01:13:23;;;;;;;0.93;0.70;;;14.70;99.90;;;;;;5008438;28;20461;-81
2021/10/04 01:15:50;;;;;;;0.90;0.90;;;14.70;99.90;;;;;;5004152;28;20520;-85
2021/10/04 01:18:19;;;;;;;1.00;0.73;;;14.70;99.90;;;;;;4996421;28;20461;-84
2021/10/04 01:20:45;;;;;;;0.87;0.80;;;14.60;99.90;;;;;;4971589;28;20477;-83
2021/10/04 01:23:13;;;;;;;1.00;0.90;;;14.80;99.90;;;;;;4996319;28;20489;-83
2021/10/04 01:25:40;;;;;;;1.30;0.80;;;14.80;99.90;;;;;;4993762;28;20544;-82
2021/10/04 01:28:07;;;;;;;1.30;1.20;;;14.80;99.90;;;;;;4992679;28;21149;-84
2021/10/04 01:30:34;;;;;;;0.70;0.70;;;14.60;99.90;;;;;;4991270;28;22242;-85
2021/10/04 01:33:04;;;;;;;0.80;0.70;;;14.70;99.90;;;;;;4984193;28;20508;-86
2021/10/04 01:35:31;;;;;;;1.03;0.70;;;14.60;99.90;;;;;;4984929;28;20464;-86
2021/10/04 01:38:05;;;;;;;0.80;0.70;;;14.80;99.90;;;;;;4989901;28;20434;-85
2021/10/04 01:40:46;;;;;;;1.13;0.60;;;14.60;99.90;;;;;;5023664;22;20501;-83
2021/10/04 01:43:14;;;;;;;1.00;0.90;;;14.70;99.90;;;;;;4981844;28;20485;-85
2021/10/04 01:45:42;;;;;;;3.00;1.13;;;14.80;99.90;;;;;;4979783;28;20449;-84
2021/10/04 01:48:12;;;;;;;0.90;0.90;;;14.80;99.90;;;;;;4986815;28;20464;-83
2021/10/04 01:50:41;;;;;;;1.00;0.90;;;14.70;99.90;;;;;;5005640;28;22249;-83
2021/10/04 01:53:11;;;;;;;1.57;0.90;;;14.70;99.90;;;;;;4999745;28;22573;-83
2021/10/04 01:55:39;;;;;;;1.03;1.03;;;14.70;99.90;;;;;;4963366;28;20456;-85
2021/10/04 01:58:06;;;;;;;1.90;1.10;;;14.60;99.90;;;;;;4999270;28;20438;-84
2021/10/04 02:00:34;;;;;;;1.30;0.90;;;14.50;99.90;;;;;;4984490;28;20485;-83
2021/10/04 02:03:13;;;;;;;2.50;1.00;;;14.50;99.90;;;;;;5008110;28;20484;-84
2021/10/04 02:05:39;;;;;;;1.33;1.13;;;14.50;99.90;;;;;;4997266;28;20455;-84
2021/10/04 02:08:07;;;;;;;1.87;1.20;;;14.50;99.90;;;;;;5001329;28;20484;-85
2021/10/04 02:10:40;;;;;;;1.67;0.90;;;14.50;99.90;;;;;;5006899;28;20481;-83
2021/10/04 02:13:09;;;;;;;2.03;1.30;;;14.40;99.90;;;;;;4990380;28;20459;-83
2021/10/04 02:15:38;;;;;;;1.50;1.03;;;14.30;99.90;;;;;;4966860;28;20541;-83
2021/10/04 02:18:05;;;;;;;1.13;1.03;;;14.40;99.90;;;;;;4977658;28;20525;-83
2021/10/04 02:20:47;;;;;;;0.90;0.90;;;14.50;99.90;;;;;;4980277;28;20556;-83
2021/10/04 02:23:15;;;;;;;1.80;0.80;;;14.40;99.90;;;;;;4988550;28;20861;-85
2021/10/04 02:25:45;;;;;;;3.10;0.93;;;14.40;99.90;;;;;;4974503;28;20460;-84
2021/10/04 02:28:14;;;;;;;1.00;0.90;;;14.50;99.90;;;;;;4994466;28;20441;-83
2021/10/04 02:33:16;;;;;;;1.40;1.00;;;14.40;99.90;;;;;;5058291;22;21232;-85
2021/10/04 02:35:43;;;;;;;3.30;0.90;;;14.50;99.90;;;;;;4974853;28;20458;-83
2021/10/04 02:38:10;;;;;;;2.03;1.10;;;14.40;99.90;;;;;;4975522;28;20446;-83
2021/10/04 02:40:37;;;;;;;1.47;1.23;;;14.40;99.90;;;;;;4987267;28;22348;-82
2021/10/04 02:43:06;;;;;;;2.30;1.83;;;14.30;99.90;;;;;;4957181;28;20568;-84
2021/10/04 02:45:35;;;;;;;0.77;0.77;;;14.20;99.90;;;;;;4975867;28;20506;-82
2021/10/04 02:48:04;;;;;;;0.90;0.90;;;14.30;99.90;;;;;;4964996;28;20462;-86
2021/10/04 02:50:31;;;;;;;0.87;0.87;;;14.30;99.90;;;;;;4971403;28;20474;-83
2021/10/04 02:52:59;;;;;;;1.30;1.20;;;14.20;99.90;;;;;;4981950;28;20477;-83
2021/10/04 02:55:25;;;;;;;1.37;0.80;;;14.10;99.90;;;;;;4982947;28;20446;-83
2021/10/04 02:57:52;;;;;;;1.03;0.90;;;14.10;99.90;;;;;;4977996;28;20447;-85
2021/10/04 03:00:37;;;;;;;1.27;0.83;;;14.20;99.90;;;;;;4959484;28;20481;-85
2021/10/04 03:03:06;;;;;;;1.37;1.13;;;14.20;99.90;;;;;;4957941;28;20458;-83
2021/10/04 03:05:42;;;;;;;1.10;0.87;;;14.30;99.90;;;;;;4953140;28;20436;-84
2021/10/04 03:08:09;;;;;;;1.10;1.03;;;14.30;99.90;;;;;;4962374;28;21489;-84
2021/10/04 03:10:39;;;;;;;1.33;0.83;;;14.30;99.90;;;;;;4974733;28;20819;-86
2021/10/04 03:13:08;;;;;;;1.20;1.00;;;14.30;99.90;;;;;;4950968;28;20458;-82
2021/10/04 03:15:39;;;;;;;0.63;0.63;;;14.30;99.90;;;;;;4949147;28;20458;-85
2021/10/04 03:18:06;;;;;;;2.07;0.90;;;14.30;99.90;;;;;;4963946;28;20542;-82
2021/10/04 03:20:36;;;;;;;1.53;0.90;;;14.30;99.90;;;;;;4945949;28;20474;-84
2021/10/04 03:23:04;;;;;;;1.77;0.87;;;14.40;99.90;;;;;;4944723;28;21059;-83
2021/10/04 03:25:32;;;;;;;2.80;1.33;;;14.40;99.90;;;;;;4942544;28;20457;-85
2021/10/04 03:27:59;;;;;;;2.93;1.20;;;14.20;99.90;;;;;;4944583;28;20451;-86
2021/10/04 03:30:26;;;;;;;0.97;0.83;;;14.10;99.90;;;;;;4944384;28;21103;-84
2021/10/04 03:32:53;;;;;;;1.60;1.20;;;14.20;99.90;;;;;;4947174;28;20488;-83
2021/10/04 03:35:20;;;;;;;2.33;0.90;;;14.30;99.90;;;;;;4962397;28;20454;-84
2021/10/04 03:37:47;;;;;;;1.23;1.13;;;14.40;99.90;;;;;;4945949;28;20455;-82
2021/10/04 03:40:15;;;;;;;1.63;1.10;;;14.50;99.90;;;;;;4943434;28;20568;-84
2021/10/04 03:42:42;;;;;;;2.00;1.10;;;14.50;99.90;;;;;;4958210;28;20470;-81
2021/10/04 03:45:11;;;;;;;1.93;1.03;;;14.50;99.90;;;;;;4946312;28;20466;-84
2021/10/04 03:47:40;;;;;;;1.00;0.80;;;14.40;99.90;;;;;;4945049;28;20890;-84
2021/10/04 03:50:08;;;;;;;1.03;1.00;;;14.40;99.90;;;;;;4936464;28;22364;-85
2021/10/04 03:52:35;;;;;;;2.13;0.80;;;14.40;99.90;;;;;;4943267;28;20529;-85
2021/10/04 03:55:04;;;;;;;1.00;0.90;;;14.40;99.90;;;;;;4958544;28;20458;-85
2021/10/04 03:57:30;;;;;;;1.40;1.20;;;14.40;99.90;;;;;;4940329;28;20459;-86
2021/10/04 03:59:57;;;;;;;1.23;1.03;;;14.40;99.90;;;;;;4958065;28;20477;-83
2021/10/04 04:02:24;;;;;;;0.97;0.97;;;14.30;99.90;;;;;;4941864;28;20450;-84
2021/10/04 04:04:52;;;;;;;1.20;1.10;;;14.30;99.90;;;;;;4942249;28;20438;-84
2021/10/04 04:07:19;;;;;;;3.03;1.23;;;14.50;99.90;;;;;;4940084;28;20516;-83
2021/10/04 04:09:46;;;;;;;1.83;1.37;;;14.50;99.90;;;;;;4957314;28;20564;-83
2021/10/04 04:12:13;;;;;;;0.80;0.80;;;14.40;99.90;;;;;;4960746;28;20458;-84
2021/10/04 04:14:39;;;;;;;4.10;1.57;;;14.40;99.90;;;;;;4962376;28;22092;-84
2021/10/04 04:17:06;;;;;;;1.17;0.97;;;14.60;99.90;;;;;;4935663;28;20454;-84
2021/10/04 04:19:35;;;;;;;1.23;1.17;;;14.50;99.90;;;;;;4942620;28;20529;-84
2021/10/04 04:22:02;;;;;;;2.10;1.00;;;14.30;99.90;;;;;;4959020;28;20947;-84
2021/10/04 04:24:29;;;;;;;1.00;1.00;;;14.50;99.90;;;;;;4950295;28;20478;-83
2021/10/04 04:26:56;;;;;;;1.07;0.90;;;14.60;99.90;;;;;;4943969;28;20449;-83
2021/10/04 04:29:23;;;;;;;2.07;1.20;;;14.50;99.90;;;;;;4961415;28;20548;-87
2021/10/04 04:31:50;;;;;;;4.07;1.80;;;14.50;99.90;;;;;;4941990;28;20462;-85
2021/10/04 04:34:17;;;;;;;1.70;1.60;;;14.50;99.90;;;;;;4935034;28;20463;-84
2021/10/04 04:36:44;;;;;;;1.30;1.20;;;14.60;99.90;;;;;;4956618;28;20458;-84
2021/10/04 04:39:11;;;;;;;1.17;1.07;;;14.70;99.90;;;;;;4939469;28;20474;-83
2021/10/04 04:41:38;;;;;;;2.60;1.30;;;14.70;99.90;;;;;;4941221;28;20462;-85
2021/10/04 04:44:05;;;;;;;1.50;1.40;;;14.60;99.90;;;;;;4955454;28;20505;-85
2021/10/04 04:46:32;;;;;;;2.23;1.23;;;14.60;99.90;;;;;;4955071;28;20461;-83
2021/10/04 04:48:58;;;;;;;1.07;1.03;;;14.60;99.90;;;;;;4956477;28;20489;-85
2021/10/04 04:51:25;;;;;;;1.60;1.10;;;14.50;99.90;;;;;;4954688;28;20588;-84
2021/10/04 04:53:55;;;;;;;1.70;1.17;;;14.50;99.90;;;;;;4956228;28;20469;-84
2021/10/04 04:56:29;;;;;;;1.80;1.10;;;14.60;99.90;;;;;;4945078;28;20465;-83
2021/10/04 04:58:56;;;;;;;2.00;1.40;;;14.60;99.90;;;;;;4944984;28;20445;-86
2021/10/04 05:01:23;;;;;;;2.00;1.20;;;14.70;99.90;;;;;;4938949;28;20466;-81
2021/10/04 05:03:50;;;;;;;1.77;1.17;;;14.60;99.90;;;;;;4941013;28;20561;-84
2021/10/04 05:06:16;;;;;;;2.63;1.60;;;14.60;99.90;;;;;;4937895;28;20455;-86
2021/10/04 05:08:43;;;;;;;1.50;1.37;;;14.50;99.90;;;;;;4929259;28;20458;-82
2021/10/04 05:11:10;;;;;;;2.97;1.10;;;14.50;99.90;;;;;;4953436;28;20493;-85
2021/10/04 05:13:37;;;;;;;2.80;1.73;;;14.60;99.90;;;;;;4958272;28;20453;-83
2021/10/04 05:16:04;;;;;;;2.63;1.40;;;14.60;99.90;;;;;;4956901;28;20553;-85
2021/10/04 05:18:31;;;;;;;2.00;1.30;;;14.50;99.90;;;;;;4956719;28;20463;-85
2021/10/04 05:20:58;;;;;;;2.40;2.30;;;14.60;99.90;;;;;;4953642;28;20486;-86
2021/10/04 05:23:36;;;;;;;1.53;1.10;;;14.70;99.90;;;;;;4941144;28;20506;-83
2021/10/04 05:26:03;;;;;;;1.43;1.27;;;14.80;99.90;;;;;;4957172;28;20463;-85
2021/10/04 05:28:30;;;;;;;1.70;1.10;;;14.70;99.90;;;;;;4955464;28;21043;-84
2021/10/04 05:30:58;;;;;;;4.00;1.30;;;14.70;99.90;;;;;;4942132;28;20485;-84
2021/10/04 05:33:27;;;;;;;2.03;1.43;;;14.60;99.90;;;;;;4953121;28;21294;-82
2021/10/04 05:36:04;;;;;;;4.33;1.10;;;14.50;99.90;;;;;;4957073;28;20489;-86
2021/10/04 05:38:32;;;;;;;1.90;1.20;;;14.50;99.90;;;;;;4936379;28;20458;-83
2021/10/04 05:40:59;;;;;;;1.70;1.30;;;14.50;99.90;;;;;;4939297;28;21053;-84
2021/10/04 05:43:25;;;;;;;2.70;1.50;;;14.50;99.90;;;;;;4955723;28;20512;-84
2021/10/04 05:45:52;;;;;;;2.57;1.53;;;14.50;99.90;;;;;;4951032;28;20940;-85
2021/10/04 05:48:19;;;;;;;2.20;1.80;;;14.50;99.90;;;;;;4941669;28;20454;-83
2021/10/04 05:50:49;;;;;;;2.57;1.67;;;14.60;99.90;;;;;;4939644;28;20458;-83
2021/10/04 05:53:26;;;;;;;1.47;1.37;;;14.60;99.90;;;;;;4963482;28;20462;-86
2021/10/04 05:55:53;;;;;;;2.53;1.30;;;14.60;99.90;;;;;;4941069;28;20465;-84
2021/10/04 05:58:25;;;;;;;1.53;1.00;;;14.50;99.90;;;;;;4955064;28;20471;-85
2021/10/04 06:00:52;;;;;;;2.70;1.60;;;14.50;99.90;;;;;;4941285;28;20528;-84
2021/10/04 06:03:19;;;;;;;2.55;1.30;;;14.50;99.90;;;;;;4607522;28;9999966;-84
2021/10/04 06:08:34;;;;;;;1.80;1.20;;;14.40;99.90;;;;;;5127335;22;20503;-86
2021/10/04 06:11:01;;;;;;;1.73;1.50;;;14.50;99.90;;;;;;4964008;28;20508;-82
2021/10/04 06:13:28;;;;;;;1.60;1.50;;;14.40;99.90;;;;;;4980296;28;20460;-83
2021/10/04 06:16:14;;;;;;;4.83;1.80;;;14.60;99.90;;;;;;4979538;28;20457;-84
2021/10/04 06:18:41;;;;;;;2.33;2.13;;;14.70;99.90;;;;;;4965307;28;20464;-86
2021/10/04 06:21:08;;;;;;;2.30;1.67;;;14.80;99.90;;;;;;4962134;28;20489;-84
2021/10/04 06:23:38;;;;;;;6.20;1.77;;;14.60;99.90;;;;;;4964342;28;20489;-86
2021/10/04 06:26:21;;;;;;;3.37;1.67;;;14.70;99.90;;;;;;4981251;28;22485;-86
2021/10/04 06:28:52;;;;;;;1.70;1.60;;;14.90;99.90;;;;;;4975803;28;20522;-83
2021/10/04 06:31:18;;;;;;;2.57;1.60;;;14.80;99.90;;;;;;4965668;28;20872;-84
2021/10/04 06:33:45;;;;;;;2.03;1.20;;;14.70;99.90;;;;;;4960695;28;20471;-83
2021/10/04 06:36:12;;;;;;;3.80;1.30;;;14.70;99.90;;;;;;4980471;28;20457;-84
2021/10/04 06:39:00;;;;;;;2.50;1.43;;;14.60;99.90;;;;;;4955430;28;20453;-86
2021/10/04 06:41:26;;;;;;;2.30;1.10;;;14.80;99.90;;;;;;4964409;28;22551;-84
2021/10/04 06:43:53;;;;;;;3.00;1.40;;;14.70;99.90;;;;;;4982698;28;20488;-83
2021/10/04 06:46:20;;;;;;;2.43;1.63;;;14.80;99.90;;;;;;4975339;28;20459;-85
2021/10/04 06:48:47;;;;;;;1.53;1.30;;;14.90;99.90;;;;;;4965120;28;20453;-85
2021/10/04 06:51:13;;;;;;;2.13;2.03;;;15.00;99.90;;;;;;4978032;28;21884;-84
2021/10/04 06:53:41;;;;;;;1.50;1.40;;;15.00;99.90;;;;;;4961106;28;20458;-83
2021/10/04 06:56:08;;;;;;;1.87;1.53;;;15.00;99.90;;;;;;4963685;28;20449;-85
2021/10/04 06:58:35;;;;;;;1.67;1.40;;;15.10;99.90;;;;;;4983584;28;20448;-84
2021/10/04 07:01:02;;;;;;;3.20;1.73;;;15.10;99.90;;;;;;4958019;28;20492;-85
2021/10/04 07:03:29;;;;;;;2.07;1.27;;;15.20;99.90;;;;;;4959721;28;20584;-86
2021/10/04 07:05:59;;;;;;;2.03;1.83;;;15.40;99.90;;;;;;4978710;28;20469;-86
2021/10/04 07:08:27;;;;;;;2.70;1.60;;;15.20;99.90;;;;;;4984207;28;21214;-84
2021/10/04 07:10:54;;;;;;;6.80;2.50;;;15.40;99.90;;;;;;4987159;28;22183;-84
2021/10/04 07:13:22;;;;;;;2.63;1.20;;;15.50;99.90;;;;;;4981673;28;20453;-84
2021/10/04 07:15:49;;;;;;;1.60;1.43;;;15.60;99.90;;;;;;4983481;28;20445;-84
2021/10/04 07:18:17;;;;;;;3.57;1.60;;;15.60;99.90;;;;;;4966154;28;20446;-84
2021/10/04 07:20:45;;;;;;;2.90;1.60;;;15.40;99.90;;;;;;4981407;28;20935;-86
2021/10/04 07:23:13;;;;;;;3.70;1.30;;;15.40;99.90;;;;;;4962243;28;20509;-83
2021/10/04 07:25:39;;;;;;;2.13;1.27;;;15.60;99.90;;;;;;4964082;28;20486;-86
2021/10/04 07:28:07;;;;;;;3.70;1.30;;;15.60;99.90;;;;;;4964229;28;20448;-85
2021/10/04 07:30:34;;;;;;;1.50;1.30;;;15.50;99.90;;;;;;4953399;28;20472;-81
2021/10/04 07:33:03;;;;;;;1.73;1.30;;;15.40;99.90;;;;;;4977815;28;20448;-85
2021/10/04 07:35:31;;;;;;;1.50;1.40;;;15.30;99.90;;;;;;4978002;28;20456;-86
2021/10/04 07:37:58;;;;;;;1.43;1.33;;;15.40;99.90;;;;;;4962816;28;20457;-84
2021/10/04 07:40:25;;;;;;;1.53;1.40;;;15.30;99.90;;;;;;4952844;28;20560;-84
2021/10/04 07:42:53;;;;;;;2.43;2.23;;;15.40;99.90;;;;;;4962307;28;20461;-86
2021/10/04 07:45:22;;;;;;;1.43;1.33;;;15.40;99.90;;;;;;4966245;28;20623;-86
2021/10/04 07:47:51;;;;;;;2.73;1.90;;;15.50;99.90;;;;;;4959532;28;20465;-86
2021/10/04 07:50:18;;;;;;;2.10;1.37;;;15.30;99.90;;;;;;4963077;28;20759;-84
2021/10/04 07:52:45;;;;;;;2.97;1.30;;;15.40;99.90;;;;;;4979749;28;20841;-85
2021/10/04 07:55:13;;;;;;;2.87;1.90;;;15.40;99.90;;;;;;4964722;28;20469;-84
2021/10/04 07:57:40;;;;;;;4.40;1.50;;;15.40;99.90;;;;;;4955962;28;20940;-84
2021/10/04 08:00:07;;;;;;;2.10;1.43;;;15.50;99.90;;;;;;4957601;28;21415;-85
2021/10/04 08:02:36;;;;;;;3.70;1.50;;;15.60;99.90;;;;;;4978998;28;20465;-86
2021/10/04 08:05:04;;;;;;;2.33;1.73;;;15.80;99.90;;;;;;4980233;28;20478;-85
2021/10/04 08:07:31;;;;;;;1.93;1.50;;;16.00;99.90;;;;;;4960824;28;20457;-84
2021/10/04 08:09:58;;;;;;;2.83;1.43;;;16.00;99.90;;;;;;4976309;28;20476;-85
2021/10/04 08:12:25;;;;;;;1.73;1.10;;;16.00;99.90;;;;;;4979467;28;21037;-86
2021/10/04 08:14:53;;;;;;;1.50;1.40;;;16.10;99.70;;;;;;4976542;28;20450;-86
2021/10/04 08:17:20;;;;;;;2.30;1.60;;;16.10;99.90;;;;;;4947974;28;20539;-87
2021/10/04 08:19:47;;;;;;;2.67;1.37;;;16.40;99.50;;;;;;4960862;28;20478;-87
2021/10/04 08:22:14;;;;;;;1.23;1.13;;;16.60;98.70;;;;;;4978135;28;20730;-86
2021/10/04 08:24:41;;;;;;;2.57;1.70;;;16.70;98.50;;;;;;4959034;28;20476;-84
2021/10/04 08:27:08;;;;;;;2.77;2.07;;;16.70;98.30;;;;;;4958166;28;20461;-84
2021/10/04 08:29:36;;;;;;;1.83;1.73;;;16.60;97.90;;;;;;4966207;28;20476;-86
2021/10/04 08:32:09;;;;;;;1.90;1.57;;;16.50;98.10;;;;;;4963405;28;20453;-84
2021/10/04 08:34:35;;;;;;;1.63;1.53;;;16.60;98.10;;;;;;4963527;28;20993;-86
2021/10/04 08:37:10;;;;;;;1.63;1.53;;;16.50;98.00;;;;;;4977826;28;20518;-87
2021/10/04 08:39:36;;;;;;;1.57;1.27;;;16.40;98.20;;;;;;4961775;28;20464;-87
2021/10/04 08:42:03;;;;;;;2.50;1.40;;;16.30;98.50;;;;;;4968846;28;20467;-85
2021/10/04 08:44:30;;;;;;;3.27;1.70;;;16.30;98.40;;;;;;4961169;28;20917;-83
2021/10/04 08:47:00;;;;;;;4.00;1.97;;;16.20;98.50;;;;;;4963909;28;20488;-83
2021/10/04 08:49:29;;;;;;;3.20;1.70;;;16.30;98.50;;;;;;4962380;28;22341;-87
2021/10/04 08:51:56;;;;;;;2.50;2.30;;;16.40;98.10;;;;;;4978406;28;20452;-85
2021/10/04 08:54:34;;;;;;;2.40;1.87;;;16.50;97.90;;;;;;4960286;28;20472;-86
2021/10/04 08:57:01;;;;;;;2.57;1.70;;;16.40;98.00;;;;;;4963788;28;20456;-83
2021/10/04 08:59:28;;;;;;;1.63;1.47;;;16.60;97.80;;;;;;4975840;28;20462;-85
2021/10/04 09:02:22;;;;;;;1.50;1.40;;;16.70;97.30;;;;;;4961448;28;20547;-86
2021/10/04 09:05:12;;;;;;;3.20;2.03;;;16.80;97.30;;;;;;4962049;28;20539;-84
2021/10/04 09:07:46;;;;;;;4.33;2.00;;;16.70;97.30;;;;;;4962057;28;20452;-84
2021/10/04 09:10:17;;;;;;;3.00;1.77;;;16.80;97.50;;;;;;4976094;28;20474;-87
2021/10/04 09:12:54;;;;;;;2.60;1.70;;;16.90;97.50;;;;;;4961243;28;21146;-84
2021/10/04 09:15:23;;;;;;;2.00;1.80;;;16.70;97.60;;;;;;4980481;28;20455;-86
2021/10/04 09:17:51;;;;;;;2.40;1.60;;;16.70;97.70;;;;;;4952015;28;21362;-86
2021/10/04 09:21:01;;;;;;;2.40;1.70;;;16.70;98.00;;;;;;4962518;28;20487;-84
2021/10/04 09:23:45;;;;;;;2.33;1.43;;;16.90;97.20;;;;;;4952616;28;22320;-86
2021/10/04 09:26:28;;;;;;;1.77;1.20;;;16.80;97.10;;;;;;4961660;28;20476;-85
2021/10/04 09:29:08;;;;;;;1.87;1.77;;;16.90;97.20;;;;;;4964483;28;21149;-84
2021/10/04 09:31:38;;;;;;;3.00;1.37;;;17.00;96.40;;;;;;4975347;28;20497;-85
2021/10/04 09:34:16;;;;;;;3.00;1.50;;;16.90;96.50;;;;;;4977969;28;20472;-84
2021/10/04 09:36:52;;;;;;;1.43;1.33;;;17.00;97.00;;;;;;4968217;28;20447;-82
2021/10/04 09:39:37;;;;;;;2.33;1.53;;;17.70;95.90;;;;;;4962356;28;20460;-84
2021/10/04 09:42:19;;;;;;;2.03;1.83;;;18.40;94.70;;;;;;4884846;28;20453;-86
2021/10/04 09:44:55;;;;;;;1.60;1.50;;;18.60;93.00;;;;;;4952459;28;20488;-86
2021/10/04 09:47:30;;;;;;;4.13;1.50;;;18.60;93.40;;;;;;4966550;28;20460;-85
2021/10/04 09:50:06;;;;;;;2.03;1.20;;;19.10;92.40;;;;;;4966479;28;20511;-83
2021/10/04 09:52:54;;;;;;;1.30;1.20;;;19.50;91.40;;;;;;4964627;28;20453;-87
2021/10/04 09:55:34;;;;;;;5.37;1.93;;;19.40;90.50;;;;;;4957200;28;20444;-84
2021/10/04 09:58:13;;;;;;;5.03;1.53;;;18.60;91.60;;;;;;4972701;28;20474;-84
2021/10/04 10:00:50;;;;;;;2.40;1.20;;;17.90;93.00;;;;;;4956888;28;21100;-85
2021/10/04 10:03:19;;;;;;;1.70;1.60;;;17.70;93.80;;;;;;4962671;28;22090;-83
2021/10/04 10:05:53;;;;;;;2.60;2.23;;;17.80;93.70;;;;;;4966746;28;20481;-87
2021/10/04 10:08:25;;;;;;;2.13;1.47;;;17.90;93.70;;;;;;4981286;28;20453;-86
2021/10/04 10:11:17;;;;;;;1.83;1.70;;;18.40;93.10;;;;;;4970377;28;20461;-87
2021/10/04 10:13:53;;;;;;;1.60;1.37;;;18.60;92.80;;;;;;4964505;28;20457;-88
2021/10/04 10:16:35;;;;;;;4.00;1.70;;;18.30;92.80;;;;;;4968739;28;21179;-87
2021/10/04 10:19:11;;;;;;;1.50;1.00;;;18.20;93.20;;;;;;4968180;28;20443;-87
2021/10/04 10:21:40;;;;;;;1.77;1.20;;;18.30;93.10;;;;;;4970009;28;20464;-88
2021/10/04 10:24:11;;;;;;;2.67;1.37;;;18.20;93.10;;;;;;4966511;28;20449;-87
2021/10/04 10:27:19;;;;;;;2.90;1.73;;;18.10;93.60;;;;;;4963634;28;21184;-86
2021/10/04 10:29:50;;;;;;;4.30;2.40;;;18.20;93.30;;;;;;4980612;28;20489;-87
2021/10/04 10:32:43;;;;;;;1.63;1.20;;;18.30;93.60;;;;;;4983861;28;20444;-87
2021/10/04 10:35:17;;;;;;;1.50;1.40;;;18.20;93.70;;;;;;4983108;28;20454;-87
2021/10/04 10:37:52;;;;;;;4.13;1.10;;;18.40;93.60;;;;;;4966694;28;20465;-86
2021/10/04 10:40:23;;;;;;;2.20;1.30;;;18.60;92.80;;;;;;4962496;28;21863;-87
2021/10/04 10:43:24;;;;;;;1.40;1.30;;;18.40;93.00;;;;;;4958041;28;20445;-86
2021/10/04 10:45:54;;;;;;;1.43;1.20;;;18.50;93.40;;;;;;4936708;28;20476;-87
2021/10/04 10:48:42;;;;;;;2.40;1.60;;;18.70;92.70;;;;;;4870822;28;20544;-87
2021/10/04 10:51:10;;;;;;;2.87;1.40;;;18.60;92.60;;;;;;4967599;28;20477;-86
2021/10/04 10:53:39;;;;;;;1.60;1.50;;;18.70;92.50;;;;;;4971425;28;20509;-88
2021/10/04 10:56:06;;;;;;;1.93;1.43;;;18.90;92.40;;;;;;4949663;28;22218;-87
2021/10/04 10:58:40;;;;;;;1.30;1.20;;;18.80;92.20;;;;;;4973432;28;20488;-89
2021/10/04 11:01:15;;;;;;;2.50;1.40;;;18.80;91.60;;;;;;4986318;28;20460;-86
2021/10/04 11:03:52;;;;;;;2.13;1.27;;;18.80;91.80;;;;;;4984916;28;20476;-88
2021/10/04 11:06:19;;;;;;;1.90;1.00;;;18.80;91.90;;;;;;4966605;28;21939;-87
2021/10/04 11:08:55;;;;;;;1.23;1.13;;;18.90;91.50;;;;;;4965757;28;20550;-87
2021/10/04 11:11:56;;;;;;;1.10;1.10;;;18.90;91.50;;;;;;4962108;28;20471;-87
2021/10/04 11:14:47;;;;;;;1.67;1.50;;;19.10;91.00;;;;;;4971242;28;20469;-89
2021/10/04 11:17:18;;;;;;;1.70;1.13;;;19.10;90.80;;;;;;4971798;28;21853;-87
2021/10/04 11:19:47;;;;;;;2.43;1.00;;;19.20;90.70;;;;;;4972531;28;20473;-87
2021/10/04 11:22:21;;;;;;;2.00;1.23;;;19.10;90.60;;;;;;4968890;28;20459;-87
2021/10/04 11:25:06;;;;;;;2.37;1.07;;;18.80;91.00;;;;;;4973716;28;20477;-89
2021/10/04 11:27:47;;;;;;;2.47;0.93;;;18.60;91.20;;;;;;4986067;28;20464;-89
2021/10/04 11:30:14;;;;;;;1.13;1.03;;;18.70;90.70;;;;;;4969996;28;20964;-87
2021/10/04 11:33:20;;;;;;;4.10;1.10;;;18.60;90.20;;;;;;4987807;28;20456;-86
2021/10/04 11:36:00;;;;;;;1.70;1.13;;;18.60;90.40;;;;;;4986470;28;20517;-86
2021/10/04 11:38:49;;;;;;;2.30;0.90;;;18.70;90.60;;;;;;4972305;28;20547;-86
2021/10/04 11:41:56;;;;;;;2.17;1.00;;;18.80;90.20;;;;;;4984446;28;20512;-86
2021/10/04 11:44:50;;;;;;;1.43;0.93;;;18.80;89.90;;;;;;4953724;28;20441;-86
2021/10/04 11:47:22;;;;;;;0.90;0.80;;;18.80;89.30;;;;;;4972747;28;20464;-88
2021/10/04 11:49:57;;;;;;;1.80;0.90;;;18.80;89.30;;;;;;4973903;28;20501;-87
2021/10/04 11:52:26;;;;;;;3.93;0.97;;;18.90;88.80;;;;;;4990168;28;22331;-89
2021/10/04 11:54:55;;;;;;;2.87;1.17;;;18.90;89.20;;;;;;4980455;28;20795;-87
2021/10/04 12:04:05;;;;;;;2.00;1.17;;;19.60;86.80;;;;;;4618846;28;10000005;-87
2021/10/04 12:06:37;;;;;;;1.90;0.90;;;20.10;83.10;;;;;;4943982;28;21261;-87
2021/10/04 12:09:17;;;;;;;2.67;1.03;;;20.30;80.90;;;;;;4945059;28;20460;-87
2021/10/04 12:12:07;;;;;;;1.43;0.73;;;20.40;81.80;;;;;;4928161;28;20494;-87
2021/10/04 12:14:46;;;;;;;1.10;0.80;;;20.40;80.10;;;;;;4943846;28;20797;-86
2021/10/04 12:17:21;;;;;;;1.37;0.90;;;20.90;78.50;;;;;;4942521;28;20478;-87
2021/10/04 12:19:53;;;;;;;2.90;0.90;;;21.20;78.10;;;;;;4929945;28;20475;-87
2021/10/04 12:22:37;;;;;;;1.97;1.03;;;21.30;78.40;;;;;;4942928;28;20474;-87
2021/10/04 12:29:28;;;;;;;1.27;1.00;;;21.30;74.10;;;;;;4946898;28;20414;-86
2021/10/04 12:32:21;;;;;;;1.23;0.97;;;20.60;76.70;;;;;;4949341;28;20506;-86
2021/10/04 12:35:06;;;;;;;0.83;0.83;;;20.70;77.30;;;;;;4936712;28;20455;-87
2021/10/04 12:38:10;;;;;;;4.47;1.13;;;21.00;76.60;;;;;;4949426;28;20901;-88
2021/10/04 12:40:45;;;;;;;1.33;1.00;;;20.70;76.20;;;;;;4933388;28;20490;-87
2021/10/04 12:43:31;;;;;;;1.73;1.13;;;20.50;76.60;;;;;;4943288;28;21765;-87
2021/10/04 12:46:15;;;;;;;1.20;0.80;;;20.60;77.60;;;;;;4926817;28;20778;-88
2021/10/04 12:48:59;;;;;;;1.57;0.90;;;21.10;75.90;;;;;;4946926;28;20472;-87
2021/10/04 12:51:45;;;;;;;2.07;1.03;;;21.00;76.10;;;;;;4925524;28;20490;-86
2021/10/04 12:54:32;;;;;;;1.40;0.80;;;21.40;74.50;;;;;;4924182;28;22073;-86
2021/10/04 12:57:29;;;;;;;1.50;1.00;;;21.80;72.80;;;;;;4928333;28;20565;-86
2021/10/04 13:00:08;;;;;;;2.40;1.00;;;22.00;70.60;;;;;;4924003;28;20652;-87
2021/10/04 13:02:44;;;;;;;4.33;0.90;;;21.60;72.20;;;;;;4936456;28;20554;-87
2021/10/04 13:05:18;;;;;;;2.03;1.00;;;21.90;72.30;;;;;;4962633;28;20529;-85
2021/10/04 13:08:00;;;;;;;2.33;0.93;;;21.90;70.10;;;;;;4963533;28;20442;-86
2021/10/04 13:10:41;;;;;;;2.40;0.80;;;22.10;70.30;;;;;;4967913;28;20469;-85
2021/10/04 13:13:13;;;;;;;2.60;0.90;;;22.20;67.50;;;;;;4940843;28;20463;-87
2021/10/04 13:16:10;;;;;;;0.93;0.83;;;22.10;67.30;;;;;;4928027;28;20450;-88
2021/10/04 13:19:01;;;;;;;4.00;1.07;;;22.10;65.70;;;;;;4944960;28;20487;-88
2021/10/04 13:21:51;;;;;;;1.70;0.80;;;22.40;66.30;;;;;;4928586;28;20484;-87
2021/10/04 13:24:37;;;;;;;2.30;1.13;;;22.40;65.60;;;;;;4923756;28;20454;-88
2021/10/04 13:27:09;;;;;;;1.73;1.10;;;21.60;66.10;;;;;;4940930;28;20490;-86
2021/10/04 13:30:02;;;;;;;1.03;0.70;;;21.20;67.80;;;;;;4921245;28;20458;-86
2021/10/04 13:32:33;;;;;;;4.00;2.30;;;21.10;67.00;;;;;;4928380;28;20470;-86
2021/10/04 13:35:07;;;;;;;1.90;1.00;;;21.20;67.40;;;;;;4933966;28;20458;-87